This is the latest recevied weather packets stored in our database for station/object K4ZZR. If no packets are shown the sender has not sent any weather packets the latest 10 day(s).
| Time | Temp. | Humidity | Pressure | Rain* | Wind** | Luminosity | Snow |
|---|---|---|---|---|---|---|---|
| 1777827070 | 22.78° C | 93% | 1016.5 hPa | 0 mm | - | 160 W/m² | - |
| 1777826767 | 23.33° C | 92% | 1016.4 hPa | 0 mm | - | 170 W/m² | - |
| 1777826464 | 23.33° C | 92% | 1016.6 hPa | 0 mm | - | 197 W/m² | - |
| 1777826161 | 23.89° C | 90% | 1016.7 hPa | 0 mm | - | 174 W/m² | - |
| 1777825859 | 23.89° C | 88% | 1016.3 hPa | 0 mm | - | 287 W/m² | - |
| 1777825555 | 23.89° C | 88% | 1016.4 hPa | 0 mm | - | 204 W/m² | - |
| 1777825253 | 23.89° C | 88% | 1016.8 hPa | 0 mm | - | 175 W/m² | - |
| 1777824950 | 24.44° C | 87% | 1016.6 hPa | 0 mm | - | 237 W/m² | - |
| 1777824646 | 23.89° C | 88% | 1016.6 hPa | 0 mm | - | 362 W/m² | - |
| 1777824344 | 23.89° C | 88% | 1016.7 hPa | 0 mm | - | 278 W/m² | - |
| 1777824039 | 23.89° C | 88% | 1016.7 hPa | 0 mm | - | 164 W/m² | - |
| 1777823736 | 23.89° C | 88% | 1016.5 hPa | 0 mm | - | 192 W/m² | - |
| 1777823432 | 23.89° C | 88% | 1016.6 hPa | 0 mm | - | 181 W/m² | - |
| 1777823130 | 23.89° C | 88% | 1016.7 hPa | 0 mm | - | 142 W/m² | - |
| 1777822827 | 23.89° C | 87% | 1016.8 hPa | 0 mm | - | 134 W/m² | - |
| 1777822526 | 23.89° C | 86% | 1016.4 hPa | 0 mm | - | 215 W/m² | - |
| 1777822223 | 23.89° C | 87% | 1016.6 hPa | 0 mm | - | 195 W/m² | - |
| 1777821920 | 23.89° C | 87% | 1016.6 hPa | 0 mm | - | 94 W/m² | - |
| 1777821618 | 23.89° C | 87% | 1016.3 hPa | 0 mm | - | 186 W/m² | - |
| 1777821316 | 23.89° C | 86% | 1016.5 hPa | 0 mm | - | 125 W/m² | - |
| 1777821012 | 23.89° C | 85% | 1016.3 hPa | 0 mm | - | 169 W/m² | - |
| 1777820709 | 24.44° C | 86% | 1016.6 hPa | 0 mm | - | 211 W/m² | - |
| 1777820404 | 24.44° C | 85% | 1016.3 hPa | 0 mm | - | 220 W/m² | - |
| 1777820103 | 24.44° C | 84% | 1016.1 hPa | 0 mm | - | 436 W/m² | - |
| 1777819800 | 25° C | 84% | 1016.3 hPa | 0 mm | - | 413 W/m² | - |
* Rain latest hour (hover to see other rain measurements)
** Current wind speed in m/s (hover to see current wind gust speed)